• Join FlightAware (Why Join?)
  • Login
  • US Flag 
09:54PM EST


 

Airport Tracker/Info


-or-


 

Live Flight TrackerFlight Track Log ✈ ASQ4209 ✈ 16-Jun-2013 ✈ KIAH - KBTR

Flight Track Log - Related Links

Times and Time Zones

All times are in EDT time to prevent confusion due to time zone crossing. See the ASQ4209 flight status page for this flight to view local times or setup timezone preferences in your user account.

Time Position Orientation Groundspeed Altitude Reporting Facility
EDT Latitude Longitude Course Direction KTS MPH feet Rate Location/Type
01:05PM 29.9661 -95.3456 90° East 159 183 800  Level Houston Center
01:06PM 29.9308 -95.3039 134° Southeast 216 249 2,500 1,380 Climbing Houston Center
01:07PM 29.9250 -95.2944 125° Southeast 203 234 2,600 2,580 Climbing Houston Center
01:07PM 29.8950 -95.2358 121° Southeast 255 293 5,200 3,540 Climbing Houston Center
01:08PM 29.9833 -94.9973 90° East  Level FlightAware Approximate
01:08PM 29.8914 -95.2067 98° East 243 280 6,300  Level Houston Center
01:08PM 29.8878 -95.1572 95° East 260 299 7,900 2,220 Climbing Houston Center
01:09PM 29.9834 -94.8853 90° East  Level FlightAware Approximate
01:09PM 29.8914 -95.1250 83° East 259 298 8,600  Level Houston Center
01:09PM 29.8981 -95.0644 83° East 285 328 10,100 1,740 Climbing Houston Center
01:10PM 29.9834 -94.7733 90° East  Level FlightAware Approximate
01:10PM 29.9022 -95.0344 81° East 278 320 10,400  Level Houston Center
01:11PM 29.9833 -94.6613 90° East  Level FlightAware Approximate
01:11PM 29.9156 -94.9286 82° East 328 377 11,500  Level Houston Center
01:12PM 29.9308 -94.8175 81° East 346 398 13,000 1,440 Climbing Houston Center
01:13PM 29.9444 -94.7050 82° East 355 409 14,500 1,440 Climbing Houston Center
01:14PM 29.9594 -94.5903 81° East 360 414 16,000 1,440 Climbing Houston Center
01:15PM 29.9747 -94.4717 82° East 362 417 17,500 1,500 Climbing Houston Center
01:16PM 29.9925 -94.3314 82° East 369 425 19,200 1,500 Climbing Houston Center
01:17PM 30.0081 -94.2133 81° East 374 430 20,700 1,440 Climbing Houston Center
01:18PM 30.0222 -94.0925 82° East 382 440 22,200 1,080 Climbing Houston Center
01:19PM 30.0381 -93.9708 81° East 385 443 23,000 360 Climbing Houston Center
01:20PM 30.0536 -93.8392 82° East 417 480 23,000  Level Houston Center
01:21PM 30.0728 -93.6769 82° East 429 494 23,000  Level Houston Center
01:22PM 30.0892 -93.5389 82° East 436 502 23,000  Level Houston Center
01:23PM 30.1064 -93.3967 82° East 452 520 23,000  Level Houston Center
01:24PM 30.1228 -93.2539 82° East 454 522 23,000  Level Houston Center
01:25PM 30.1464 -93.0789 81° East 462 532 23,000 -60 Level Houston Center
01:26PM 30.1744 -92.9333 77° East 467 537 22,900 -300 Descending Houston Center
01:27PM 30.2022 -92.7894 77° East 463 533 22,400 -540 Descending Houston Center
01:28PM 30.2297 -92.6467 77° East 459 528 21,800 -720 Descending Houston Center
01:30PM 30.2575 -92.5064 77° East 452 520 21,000 -720 Descending Houston Center
01:31PM 30.2853 -92.3639 77° East 454 522 20,400 -600 Descending Houston Center
01:32PM 30.3150 -92.2072 78° East 447 514 19,800 -600 Descending Houston Center
01:33PM 30.3411 -92.0703 78° East 439 505 19,200 -840 Descending Houston Center
01:34PM 30.3664 -91.9361 78° East 431 496 18,100 -1,740 Descending Houston Center
01:35PM 30.3961 -91.7786 78° East 421 484 15,700 -2,100 Descending Houston Center
01:36PM 30.4139 -91.6631 80° East 403 464 13,800 -2,040 Descending Houston Center
01:37PM 30.3989 -91.5497 99° East 355 409 11,600 -2,220 Descending Houston Center
01:38PM 30.3911 -91.4533 95° East 307 353 9,300 -2,460 Descending Houston Center
01:39PM 30.3806 -91.3483 97° East 274 315 6,600 -2,220 Descending Houston Center
01:40PM 30.3803 -91.2644 90° East 262 302 4,800 -1,560 Descending Houston Center
01:41PM 30.4086 -91.1814 68° East 261 300 3,400 -1,380 Descending Houston Center